<?xml version="1.0" encoding="UTF-8" standalone="no" ?>
<gpx xmlns="http://www.topografix.com/GPX/1/1" xmlns:xsi="http://www.w3.org/2001/XMLSchema-instance" xsi:schemaLocation="http://www.topografix.com/GPX/1/1 http://www.topografix.com/GPX/1/1/gpx.xsd" version="1.1" creator="VisuGPX - https://www.visugpx.com">
  <metadata>
    <name>5688698-Notre dame d'afrique</name>
  </metadata>
  <trk>
    <name><![CDATA[5688698-Notre dame d'afrique]]></name>
    <trkseg>
      <trkpt lat="43.50384" lon="6.9373">
        <ele>36</ele>
        <time>2022-03-21T10:23:58Z</time>
      </trkpt>
      <trkpt lat="43.5035" lon="6.93736">
        <ele>37</ele>
        <time>2022-03-21T10:24:06Z</time>
      </trkpt>
      <trkpt lat="43.50336" lon="6.93753">
        <ele>38</ele>
        <time>2022-03-21T10:24:10Z</time>
      </trkpt>
      <trkpt lat="43.50359" lon="6.93765">
        <ele>38</ele>
        <time>2022-03-21T10:24:16Z</time>
      </trkpt>
      <trkpt lat="43.50382" lon="6.93774">
        <ele>35</ele>
        <time>2022-03-21T10:24:22Z</time>
      </trkpt>
      <trkpt lat="43.50404" lon="6.93815">
        <ele>32</ele>
        <time>2022-03-21T10:24:30Z</time>
      </trkpt>
      <trkpt lat="43.5041" lon="6.93863">
        <ele>35</ele>
        <time>2022-03-21T10:24:39Z</time>
      </trkpt>
      <trkpt lat="43.50424" lon="6.9389">
        <ele>35</ele>
        <time>2022-03-21T10:24:44Z</time>
      </trkpt>
      <trkpt lat="43.50457" lon="6.93942">
        <ele>38</ele>
        <time>2022-03-21T10:24:56Z</time>
      </trkpt>
      <trkpt lat="43.50508" lon="6.94001">
        <ele>34</ele>
        <time>2022-03-21T10:25:11Z</time>
      </trkpt>
      <trkpt lat="43.50534" lon="6.9403">
        <ele>35</ele>
        <time>2022-03-21T10:25:19Z</time>
      </trkpt>
      <trkpt lat="43.50494" lon="6.94005">
        <ele>41</ele>
        <time>2022-03-21T10:25:30Z</time>
      </trkpt>
      <trkpt lat="43.50466" lon="6.93991">
        <ele>50</ele>
        <time>2022-03-21T10:25:36Z</time>
      </trkpt>
      <trkpt lat="43.50422" lon="6.93952">
        <ele>54</ele>
        <time>2022-03-21T10:25:49Z</time>
      </trkpt>
      <trkpt lat="43.50383" lon="6.93941">
        <ele>68</ele>
        <time>2022-03-21T10:25:58Z</time>
      </trkpt>
      <trkpt lat="43.50349" lon="6.93843">
        <ele>56</ele>
        <time>2022-03-21T10:26:16Z</time>
      </trkpt>
      <trkpt lat="43.50315" lon="6.93829">
        <ele>62</ele>
        <time>2022-03-21T10:26:25Z</time>
      </trkpt>
      <trkpt lat="43.50278" lon="6.93813">
        <ele>64</ele>
        <time>2022-03-21T10:26:34Z</time>
      </trkpt>
      <trkpt lat="43.50236" lon="6.93828">
        <ele>74</ele>
        <time>2022-03-21T10:26:44Z</time>
      </trkpt>
      <trkpt lat="43.50199" lon="6.93838">
        <ele>79</ele>
        <time>2022-03-21T10:26:53Z</time>
      </trkpt>
      <trkpt lat="43.50173" lon="6.93833">
        <ele>78</ele>
        <time>2022-03-21T10:26:59Z</time>
      </trkpt>
      <trkpt lat="43.50162" lon="6.93838">
        <ele>79</ele>
        <time>2022-03-21T10:27:01Z</time>
      </trkpt>
      <trkpt lat="43.50116" lon="6.93849">
        <ele>81</ele>
        <time>2022-03-21T10:27:12Z</time>
      </trkpt>
      <trkpt lat="43.50104" lon="6.93877">
        <ele>87</ele>
        <time>2022-03-21T10:27:18Z</time>
      </trkpt>
      <trkpt lat="43.50089" lon="6.93916">
        <ele>95</ele>
        <time>2022-03-21T10:27:25Z</time>
      </trkpt>
      <trkpt lat="43.50085" lon="6.9397">
        <ele>108</ele>
        <time>2022-03-21T10:27:35Z</time>
      </trkpt>
      <trkpt lat="43.50097" lon="6.9397">
        <ele>109</ele>
        <time>2022-03-21T10:27:37Z</time>
      </trkpt>
      <trkpt lat="43.50111" lon="6.93906">
        <ele>95</ele>
        <time>2022-03-21T10:27:49Z</time>
      </trkpt>
      <trkpt lat="43.50132" lon="6.93921">
        <ele>101</ele>
        <time>2022-03-21T10:27:54Z</time>
      </trkpt>
      <trkpt lat="43.50147" lon="6.93933">
        <ele>105</ele>
        <time>2022-03-21T10:27:58Z</time>
      </trkpt>
      <trkpt lat="43.50176" lon="6.9394">
        <ele>109</ele>
        <time>2022-03-21T10:28:05Z</time>
      </trkpt>
      <trkpt lat="43.50211" lon="6.93959">
        <ele>114</ele>
        <time>2022-03-21T10:28:14Z</time>
      </trkpt>
      <trkpt lat="43.5026" lon="6.93976">
        <ele>118</ele>
        <time>2022-03-21T10:28:26Z</time>
      </trkpt>
      <trkpt lat="43.50278" lon="6.94002">
        <ele>121</ele>
        <time>2022-03-21T10:28:32Z</time>
      </trkpt>
      <trkpt lat="43.503" lon="6.9404">
        <ele>128</ele>
        <time>2022-03-21T10:28:40Z</time>
      </trkpt>
      <trkpt lat="43.50276" lon="6.94058">
        <ele>136</ele>
        <time>2022-03-21T10:28:46Z</time>
      </trkpt>
      <trkpt lat="43.50248" lon="6.9408">
        <ele>144</ele>
        <time>2022-03-21T10:28:54Z</time>
      </trkpt>
      <trkpt lat="43.50213" lon="6.94108">
        <ele>149</ele>
        <time>2022-03-21T10:29:03Z</time>
      </trkpt>
      <trkpt lat="43.50149" lon="6.94113">
        <ele>151</ele>
        <time>2022-03-21T10:29:18Z</time>
      </trkpt>
      <trkpt lat="43.5012" lon="6.94121">
        <ele>152</ele>
        <time>2022-03-21T10:29:25Z</time>
      </trkpt>
      <trkpt lat="43.50078" lon="6.94132">
        <ele>156</ele>
        <time>2022-03-21T10:29:35Z</time>
      </trkpt>
      <trkpt lat="43.50043" lon="6.94136">
        <ele>160</ele>
        <time>2022-03-21T10:29:43Z</time>
      </trkpt>
      <trkpt lat="43.5002" lon="6.94149">
        <ele>166</ele>
        <time>2022-03-21T10:29:49Z</time>
      </trkpt>
      <trkpt lat="43.49998" lon="6.94144">
        <ele>167</ele>
        <time>2022-03-21T10:29:54Z</time>
      </trkpt>
      <trkpt lat="43.49901" lon="6.94121">
        <ele>177</ele>
        <time>2022-03-21T10:30:17Z</time>
      </trkpt>
      <trkpt lat="43.49838" lon="6.94141">
        <ele>183</ele>
        <time>2022-03-21T10:30:33Z</time>
      </trkpt>
      <trkpt lat="43.49794" lon="6.94157">
        <ele>183</ele>
        <time>2022-03-21T10:30:43Z</time>
      </trkpt>
      <trkpt lat="43.4974" lon="6.94165">
        <ele>179</ele>
        <time>2022-03-21T10:30:56Z</time>
      </trkpt>
      <trkpt lat="43.49695" lon="6.94168">
        <ele>173</ele>
        <time>2022-03-21T10:31:06Z</time>
      </trkpt>
      <trkpt lat="43.49646" lon="6.94214">
        <ele>168</ele>
        <time>2022-03-21T10:31:20Z</time>
      </trkpt>
      <trkpt lat="43.49594" lon="6.94237">
        <ele>161</ele>
        <time>2022-03-21T10:31:33Z</time>
      </trkpt>
      <trkpt lat="43.49552" lon="6.94218">
        <ele>155</ele>
        <time>2022-03-21T10:31:43Z</time>
      </trkpt>
      <trkpt lat="43.49538" lon="6.9424">
        <ele>157</ele>
        <time>2022-03-21T10:31:48Z</time>
      </trkpt>
      <trkpt lat="43.49459" lon="6.94252">
        <ele>156</ele>
        <time>2022-03-21T10:32:07Z</time>
      </trkpt>
      <trkpt lat="43.49398" lon="6.9425">
        <ele>156</ele>
        <time>2022-03-21T10:32:21Z</time>
      </trkpt>
      <trkpt lat="43.49374" lon="6.94252">
        <ele>157</ele>
        <time>2022-03-21T10:32:27Z</time>
      </trkpt>
      <trkpt lat="43.49347" lon="6.94234">
        <ele>159</ele>
        <time>2022-03-21T10:32:34Z</time>
      </trkpt>
      <trkpt lat="43.49314" lon="6.94155">
        <ele>168</ele>
        <time>2022-03-21T10:32:49Z</time>
      </trkpt>
      <trkpt lat="43.49288" lon="6.94086">
        <ele>176</ele>
        <time>2022-03-21T10:33:02Z</time>
      </trkpt>
      <trkpt lat="43.49277" lon="6.93983">
        <ele>179</ele>
        <time>2022-03-21T10:33:20Z</time>
      </trkpt>
      <trkpt lat="43.49294" lon="6.93893">
        <ele>174</ele>
        <time>2022-03-21T10:33:36Z</time>
      </trkpt>
      <trkpt lat="43.49309" lon="6.93723">
        <ele>172</ele>
        <time>2022-03-21T10:34:05Z</time>
      </trkpt>
      <trkpt lat="43.49336" lon="6.93605">
        <ele>174</ele>
        <time>2022-03-21T10:34:26Z</time>
      </trkpt>
      <trkpt lat="43.49334" lon="6.93479">
        <ele>178</ele>
        <time>2022-03-21T10:34:47Z</time>
      </trkpt>
      <trkpt lat="43.49351" lon="6.93367">
        <ele>174</ele>
        <time>2022-03-21T10:35:06Z</time>
      </trkpt>
      <trkpt lat="43.49342" lon="6.93326">
        <ele>172</ele>
        <time>2022-03-21T10:35:14Z</time>
      </trkpt>
      <trkpt lat="43.49367" lon="6.93301">
        <ele>167</ele>
        <time>2022-03-21T10:35:21Z</time>
      </trkpt>
      <trkpt lat="43.49397" lon="6.93322">
        <ele>166</ele>
        <time>2022-03-21T10:35:29Z</time>
      </trkpt>
      <trkpt lat="43.49403" lon="6.93262">
        <ele>164</ele>
        <time>2022-03-21T10:35:39Z</time>
      </trkpt>
      <trkpt lat="43.49409" lon="6.93217">
        <ele>163</ele>
        <time>2022-03-21T10:35:47Z</time>
      </trkpt>
      <trkpt lat="43.49436" lon="6.93174">
        <ele>159</ele>
        <time>2022-03-21T10:35:56Z</time>
      </trkpt>
      <trkpt lat="43.49437" lon="6.93118">
        <ele>156</ele>
        <time>2022-03-21T10:36:06Z</time>
      </trkpt>
      <trkpt lat="43.49411" lon="6.9312">
        <ele>159</ele>
        <time>2022-03-21T10:36:12Z</time>
      </trkpt>
      <trkpt lat="43.49381" lon="6.93146">
        <ele>154</ele>
        <time>2022-03-21T10:36:20Z</time>
      </trkpt>
      <trkpt lat="43.49376" lon="6.93193">
        <ele>158</ele>
        <time>2022-03-21T10:36:28Z</time>
      </trkpt>
      <trkpt lat="43.49356" lon="6.93168">
        <ele>152</ele>
        <time>2022-03-21T10:36:35Z</time>
      </trkpt>
      <trkpt lat="43.49367" lon="6.93127">
        <ele>148</ele>
        <time>2022-03-21T10:36:42Z</time>
      </trkpt>
      <trkpt lat="43.49392" lon="6.93065">
        <ele>147</ele>
        <time>2022-03-21T10:36:54Z</time>
      </trkpt>
      <trkpt lat="43.49409" lon="6.92989">
        <ele>141</ele>
        <time>2022-03-21T10:37:08Z</time>
      </trkpt>
      <trkpt lat="43.49411" lon="6.92934">
        <ele>134</ele>
        <time>2022-03-21T10:37:17Z</time>
      </trkpt>
      <trkpt lat="43.49401" lon="6.92899">
        <ele>126</ele>
        <time>2022-03-21T10:37:23Z</time>
      </trkpt>
      <trkpt lat="43.49415" lon="6.92852">
        <ele>123</ele>
        <time>2022-03-21T10:37:32Z</time>
      </trkpt>
      <trkpt lat="43.49456" lon="6.92846">
        <ele>124</ele>
        <time>2022-03-21T10:37:41Z</time>
      </trkpt>
      <trkpt lat="43.49479" lon="6.92816">
        <ele>121</ele>
        <time>2022-03-21T10:37:49Z</time>
      </trkpt>
      <trkpt lat="43.49496" lon="6.92768">
        <ele>120</ele>
        <time>2022-03-21T10:37:58Z</time>
      </trkpt>
      <trkpt lat="43.49471" lon="6.92723">
        <ele>117</ele>
        <time>2022-03-21T10:38:07Z</time>
      </trkpt>
      <trkpt lat="43.49478" lon="6.9264">
        <ele>128</ele>
        <time>2022-03-21T10:38:22Z</time>
      </trkpt>
      <trkpt lat="43.49453" lon="6.92582">
        <ele>132</ele>
        <time>2022-03-21T10:38:33Z</time>
      </trkpt>
      <trkpt lat="43.49426" lon="6.92442">
        <ele>156</ele>
        <time>2022-03-21T10:38:58Z</time>
      </trkpt>
      <trkpt lat="43.4946" lon="6.92539">
        <ele>143</ele>
        <time>2022-03-21T10:39:16Z</time>
      </trkpt>
      <trkpt lat="43.49501" lon="6.92569">
        <ele>145</ele>
        <time>2022-03-21T10:39:27Z</time>
      </trkpt>
      <trkpt lat="43.49529" lon="6.9255">
        <ele>142</ele>
        <time>2022-03-21T10:39:34Z</time>
      </trkpt>
      <trkpt lat="43.49523" lon="6.92436">
        <ele>157</ele>
        <time>2022-03-21T10:39:53Z</time>
      </trkpt>
      <trkpt lat="43.4953" lon="6.92393">
        <ele>160</ele>
        <time>2022-03-21T10:40:01Z</time>
      </trkpt>
      <trkpt lat="43.49549" lon="6.92339">
        <ele>161</ele>
        <time>2022-03-21T10:40:11Z</time>
      </trkpt>
      <trkpt lat="43.49551" lon="6.92217">
        <ele>170</ele>
        <time>2022-03-21T10:40:32Z</time>
      </trkpt>
      <trkpt lat="43.49521" lon="6.92163">
        <ele>174</ele>
        <time>2022-03-21T10:40:43Z</time>
      </trkpt>
      <trkpt lat="43.49487" lon="6.92198">
        <ele>181</ele>
        <time>2022-03-21T10:40:53Z</time>
      </trkpt>
      <trkpt lat="43.49476" lon="6.92125">
        <ele>180</ele>
        <time>2022-03-21T10:41:06Z</time>
      </trkpt>
      <trkpt lat="43.49448" lon="6.92105">
        <ele>182</ele>
        <time>2022-03-21T10:41:13Z</time>
      </trkpt>
      <trkpt lat="43.49425" lon="6.92075">
        <ele>183</ele>
        <time>2022-03-21T10:41:20Z</time>
      </trkpt>
      <trkpt lat="43.49421" lon="6.92028">
        <ele>185</ele>
        <time>2022-03-21T10:41:29Z</time>
      </trkpt>
      <trkpt lat="43.49476" lon="6.91983">
        <ele>192</ele>
        <time>2022-03-21T10:41:43Z</time>
      </trkpt>
      <trkpt lat="43.49488" lon="6.91949">
        <ele>200</ele>
        <time>2022-03-21T10:41:50Z</time>
      </trkpt>
      <trkpt lat="43.49527" lon="6.9196">
        <ele>197</ele>
        <time>2022-03-21T10:41:59Z</time>
      </trkpt>
      <trkpt lat="43.49555" lon="6.91891">
        <ele>212</ele>
        <time>2022-03-21T10:42:13Z</time>
      </trkpt>
      <trkpt lat="43.49582" lon="6.91876">
        <ele>215</ele>
        <time>2022-03-21T10:42:19Z</time>
      </trkpt>
      <trkpt lat="43.49622" lon="6.91902">
        <ele>218</ele>
        <time>2022-03-21T10:42:30Z</time>
      </trkpt>
      <trkpt lat="43.49644" lon="6.91938">
        <ele>217</ele>
        <time>2022-03-21T10:42:38Z</time>
      </trkpt>
      <trkpt lat="43.49711" lon="6.92052">
        <ele>218</ele>
        <time>2022-03-21T10:43:03Z</time>
      </trkpt>
      <trkpt lat="43.49728" lon="6.92157">
        <ele>218</ele>
        <time>2022-03-21T10:43:21Z</time>
      </trkpt>
      <trkpt lat="43.49764" lon="6.92215">
        <ele>221</ele>
        <time>2022-03-21T10:43:34Z</time>
      </trkpt>
      <trkpt lat="43.49795" lon="6.92223">
        <ele>225</ele>
        <time>2022-03-21T10:43:41Z</time>
      </trkpt>
      <trkpt lat="43.4982" lon="6.92219">
        <ele>230</ele>
        <time>2022-03-21T10:43:47Z</time>
      </trkpt>
      <trkpt lat="43.49845" lon="6.92232">
        <ele>236</ele>
        <time>2022-03-21T10:43:53Z</time>
      </trkpt>
      <trkpt lat="43.49864" lon="6.92256">
        <ele>241</ele>
        <time>2022-03-21T10:43:59Z</time>
      </trkpt>
      <trkpt lat="43.49957" lon="6.92178">
        <ele>241</ele>
        <time>2022-03-21T10:44:25Z</time>
      </trkpt>
      <trkpt lat="43.49993" lon="6.92245">
        <ele>250</ele>
        <time>2022-03-21T10:44:39Z</time>
      </trkpt>
      <trkpt lat="43.5003" lon="6.92277">
        <ele>244</ele>
        <time>2022-03-21T10:44:49Z</time>
      </trkpt>
      <trkpt lat="43.50043" lon="6.92324">
        <ele>248</ele>
        <time>2022-03-21T10:44:57Z</time>
      </trkpt>
      <trkpt lat="43.50091" lon="6.92359">
        <ele>238</ele>
        <time>2022-03-21T10:45:10Z</time>
      </trkpt>
      <trkpt lat="43.50139" lon="6.92369">
        <ele>228</ele>
        <time>2022-03-21T10:45:21Z</time>
      </trkpt>
      <trkpt lat="43.50203" lon="6.92337">
        <ele>218</ele>
        <time>2022-03-21T10:45:37Z</time>
      </trkpt>
      <trkpt lat="43.50267" lon="6.92307">
        <ele>205</ele>
        <time>2022-03-21T10:45:53Z</time>
      </trkpt>
      <trkpt lat="43.50307" lon="6.92303">
        <ele>199</ele>
        <time>2022-03-21T10:46:02Z</time>
      </trkpt>
      <trkpt lat="43.50345" lon="6.92356">
        <ele>197</ele>
        <time>2022-03-21T10:46:15Z</time>
      </trkpt>
      <trkpt lat="43.50377" lon="6.92393">
        <ele>191</ele>
        <time>2022-03-21T10:46:25Z</time>
      </trkpt>
      <trkpt lat="43.5041" lon="6.92442">
        <ele>186</ele>
        <time>2022-03-21T10:46:36Z</time>
      </trkpt>
      <trkpt lat="43.50376" lon="6.92438">
        <ele>189</ele>
        <time>2022-03-21T10:46:44Z</time>
      </trkpt>
      <trkpt lat="43.50334" lon="6.92438">
        <ele>192</ele>
        <time>2022-03-21T10:46:54Z</time>
      </trkpt>
      <trkpt lat="43.50278" lon="6.92432">
        <ele>196</ele>
        <time>2022-03-21T10:47:07Z</time>
      </trkpt>
      <trkpt lat="43.50229" lon="6.92464">
        <ele>194</ele>
        <time>2022-03-21T10:47:20Z</time>
      </trkpt>
      <trkpt lat="43.50212" lon="6.92496">
        <ele>192</ele>
        <time>2022-03-21T10:47:26Z</time>
      </trkpt>
      <trkpt lat="43.50215" lon="6.9255">
        <ele>186</ele>
        <time>2022-03-21T10:47:36Z</time>
      </trkpt>
      <trkpt lat="43.5022" lon="6.92612">
        <ele>182</ele>
        <time>2022-03-21T10:47:46Z</time>
      </trkpt>
      <trkpt lat="43.50231" lon="6.92674">
        <ele>180</ele>
        <time>2022-03-21T10:47:57Z</time>
      </trkpt>
      <trkpt lat="43.50237" lon="6.92741">
        <ele>181</ele>
        <time>2022-03-21T10:48:08Z</time>
      </trkpt>
      <trkpt lat="43.50248" lon="6.92803">
        <ele>181</ele>
        <time>2022-03-21T10:48:19Z</time>
      </trkpt>
      <trkpt lat="43.50264" lon="6.92859">
        <ele>176</ele>
        <time>2022-03-21T10:48:29Z</time>
      </trkpt>
      <trkpt lat="43.50279" lon="6.92895">
        <ele>169</ele>
        <time>2022-03-21T10:48:37Z</time>
      </trkpt>
      <trkpt lat="43.50285" lon="6.9294">
        <ele>166</ele>
        <time>2022-03-21T10:48:44Z</time>
      </trkpt>
      <trkpt lat="43.50265" lon="6.92981">
        <ele>175</ele>
        <time>2022-03-21T10:48:53Z</time>
      </trkpt>
      <trkpt lat="43.50274" lon="6.93028">
        <ele>169</ele>
        <time>2022-03-21T10:49:01Z</time>
      </trkpt>
      <trkpt lat="43.50293" lon="6.93065">
        <ele>160</ele>
        <time>2022-03-21T10:49:09Z</time>
      </trkpt>
      <trkpt lat="43.50312" lon="6.93099">
        <ele>151</ele>
        <time>2022-03-21T10:49:16Z</time>
      </trkpt>
      <trkpt lat="43.50341" lon="6.9311">
        <ele>141</ele>
        <time>2022-03-21T10:49:23Z</time>
      </trkpt>
      <trkpt lat="43.50309" lon="6.9314">
        <ele>145</ele>
        <time>2022-03-21T10:49:32Z</time>
      </trkpt>
      <trkpt lat="43.50279" lon="6.93161">
        <ele>148</ele>
        <time>2022-03-21T10:49:40Z</time>
      </trkpt>
      <trkpt lat="43.5026" lon="6.93185">
        <ele>149</ele>
        <time>2022-03-21T10:49:46Z</time>
      </trkpt>
      <trkpt lat="43.50262" lon="6.93198">
        <ele>148</ele>
        <time>2022-03-21T10:49:48Z</time>
      </trkpt>
      <trkpt lat="43.50292" lon="6.93279">
        <ele>131</ele>
        <time>2022-03-21T10:50:03Z</time>
      </trkpt>
      <trkpt lat="43.50338" lon="6.93401">
        <ele>114</ele>
        <time>2022-03-21T10:50:27Z</time>
      </trkpt>
      <trkpt lat="43.50377" lon="6.93481">
        <ele>98</ele>
        <time>2022-03-21T10:50:43Z</time>
      </trkpt>
      <trkpt lat="43.50413" lon="6.93509">
        <ele>94</ele>
        <time>2022-03-21T10:50:53Z</time>
      </trkpt>
      <trkpt lat="43.50449" lon="6.93532">
        <ele>91</ele>
        <time>2022-03-21T10:51:02Z</time>
      </trkpt>
      <trkpt lat="43.50481" lon="6.9355">
        <ele>89</ele>
        <time>2022-03-21T10:51:10Z</time>
      </trkpt>
      <trkpt lat="43.50514" lon="6.93586">
        <ele>86</ele>
        <time>2022-03-21T10:51:20Z</time>
      </trkpt>
      <trkpt lat="43.5055" lon="6.93595">
        <ele>82</ele>
        <time>2022-03-21T10:51:28Z</time>
      </trkpt>
      <trkpt lat="43.50587" lon="6.93595">
        <ele>78</ele>
        <time>2022-03-21T10:51:37Z</time>
      </trkpt>
      <trkpt lat="43.5057" lon="6.93625">
        <ele>76</ele>
        <time>2022-03-21T10:51:43Z</time>
      </trkpt>
      <trkpt lat="43.50609" lon="6.93657">
        <ele>66</ele>
        <time>2022-03-21T10:51:54Z</time>
      </trkpt>
      <trkpt lat="43.50636" lon="6.93698">
        <ele>55</ele>
        <time>2022-03-21T10:52:03Z</time>
      </trkpt>
      <trkpt lat="43.50667" lon="6.93723">
        <ele>48</ele>
        <time>2022-03-21T10:52:12Z</time>
      </trkpt>
      <trkpt lat="43.50695" lon="6.93747">
        <ele>40</ele>
        <time>2022-03-21T10:52:20Z</time>
      </trkpt>
      <trkpt lat="43.50729" lon="6.93756">
        <ele>33</ele>
        <time>2022-03-21T10:52:28Z</time>
      </trkpt>
      <trkpt lat="43.50729" lon="6.93687">
        <ele>30</ele>
        <time>2022-03-21T10:52:39Z</time>
      </trkpt>
      <trkpt lat="43.50716" lon="6.93627">
        <ele>32</ele>
        <time>2022-03-21T10:52:50Z</time>
      </trkpt>
      <trkpt lat="43.50698" lon="6.9358">
        <ele>34</ele>
        <time>2022-03-21T10:52:59Z</time>
      </trkpt>
      <trkpt lat="43.50684" lon="6.93534">
        <ele>33</ele>
        <time>2022-03-21T10:53:07Z</time>
      </trkpt>
      <trkpt lat="43.50684" lon="6.93487">
        <ele>29</ele>
        <time>2022-03-21T10:53:15Z</time>
      </trkpt>
      <trkpt lat="43.50693" lon="6.93496">
        <ele>28</ele>
        <time>2022-03-21T10:53:18Z</time>
      </trkpt>
      <trkpt lat="43.50716" lon="6.9356">
        <ele>28</ele>
        <time>2022-03-21T10:53:30Z</time>
      </trkpt>
      <trkpt lat="43.50738" lon="6.93588">
        <ele>21</ele>
        <time>2022-03-21T10:53:37Z</time>
      </trkpt>
      <trkpt lat="43.50757" lon="6.93618">
        <ele>19</ele>
        <time>2022-03-21T10:53:44Z</time>
      </trkpt>
      <trkpt lat="43.50779" lon="6.93691">
        <ele>21</ele>
        <time>2022-03-21T10:53:57Z</time>
      </trkpt>
      <trkpt lat="43.50791" lon="6.93736">
        <ele>22</ele>
        <time>2022-03-21T10:54:05Z</time>
      </trkpt>
      <trkpt lat="43.50827" lon="6.93762">
        <ele>15</ele>
        <time>2022-03-21T10:54:15Z</time>
      </trkpt>
      <trkpt lat="43.50858" lon="6.93828">
        <ele>7</ele>
        <time>2022-03-21T10:54:28Z</time>
      </trkpt>
      <trkpt lat="43.50835" lon="6.93876">
        <ele>8</ele>
        <time>2022-03-21T10:54:38Z</time>
      </trkpt>
      <trkpt lat="43.50818" lon="6.93929">
        <ele>10</ele>
        <time>2022-03-21T10:54:48Z</time>
      </trkpt>
      <trkpt lat="43.5085" lon="6.93968">
        <ele>6</ele>
        <time>2022-03-21T10:54:58Z</time>
      </trkpt>
      <trkpt lat="43.50829" lon="6.94041">
        <ele>8</ele>
        <time>2022-03-21T10:55:11Z</time>
      </trkpt>
      <trkpt lat="43.50833" lon="6.94072">
        <ele>8</ele>
        <time>2022-03-21T10:55:16Z</time>
      </trkpt>
      <trkpt lat="43.50836" lon="6.94085">
        <ele>8</ele>
        <time>2022-03-21T10:55:19Z</time>
      </trkpt>
      <trkpt lat="43.50823" lon="6.94164">
        <ele>7</ele>
        <time>2022-03-21T10:55:32Z</time>
      </trkpt>
      <trkpt lat="43.50769" lon="6.94179">
        <ele>5</ele>
        <time>2022-03-21T10:55:45Z</time>
      </trkpt>
      <trkpt lat="43.50743" lon="6.94184">
        <ele>5</ele>
        <time>2022-03-21T10:55:51Z</time>
      </trkpt>
      <trkpt lat="43.50708" lon="6.94136">
        <ele>9</ele>
        <time>2022-03-21T10:56:03Z</time>
      </trkpt>
      <trkpt lat="43.50683" lon="6.94094">
        <ele>9</ele>
        <time>2022-03-21T10:56:12Z</time>
      </trkpt>
      <trkpt lat="43.50617" lon="6.94003">
        <ele>11</ele>
        <time>2022-03-21T10:56:34Z</time>
      </trkpt>
      <trkpt lat="43.50624" lon="6.93983">
        <ele>12</ele>
        <time>2022-03-21T10:56:38Z</time>
      </trkpt>
      <trkpt lat="43.50604" lon="6.93981">
        <ele>11</ele>
        <time>2022-03-21T10:56:42Z</time>
      </trkpt>
      <trkpt lat="43.50592" lon="6.93963">
        <ele>11</ele>
        <time>2022-03-21T10:56:46Z</time>
      </trkpt>
      <trkpt lat="43.50569" lon="6.93932">
        <ele>13</ele>
        <time>2022-03-21T10:56:54Z</time>
      </trkpt>
      <trkpt lat="43.50545" lon="6.93903">
        <ele>15</ele>
        <time>2022-03-21T10:57:01Z</time>
      </trkpt>
      <trkpt lat="43.50494" lon="6.93874">
        <ele>20</ele>
        <time>2022-03-21T10:57:14Z</time>
      </trkpt>
      <trkpt lat="43.50449" lon="6.93846">
        <ele>25</ele>
        <time>2022-03-21T10:57:26Z</time>
      </trkpt>
      <trkpt lat="43.50432" lon="6.93824">
        <ele>26</ele>
        <time>2022-03-21T10:57:31Z</time>
      </trkpt>
      <trkpt lat="43.50402" lon="6.93791">
        <ele>32</ele>
        <time>2022-03-21T10:57:40Z</time>
      </trkpt>
      <trkpt lat="43.50392" lon="6.93765">
        <ele>33</ele>
        <time>2022-03-21T10:57:45Z</time>
      </trkpt>
      <trkpt lat="43.5037" lon="6.93746">
        <ele>34</ele>
        <time>2022-03-21T10:57:51Z</time>
      </trkpt>
      <trkpt lat="43.50359" lon="6.93739">
        <ele>36</ele>
        <time>2022-03-21T10:57:54Z</time>
      </trkpt>
      <trkpt lat="43.50385" lon="6.93731">
        <ele>35</ele>
        <time>2022-03-21T10:58:00Z</time>
      </trkpt>
    </trkseg>
  </trk>
</gpx>